Time;durP1;ratioP1;P1;durP2;ratioP2;P2;SDS_P1;SDS_P2;PMS_P1;PMS_P2;Temp;Humidity;BMP_temperature;BMP_pressure;BME280_temperature;BME280_humidity;BME280_pressure;Samples;Min_cycle;Max_cycle;Signal;HPM_P1;HPM_P2
2023/01/18 00:00:29;;;;;;;18.03;13.20;;;1.70;95.20;;;;;;5116903;28;20451;-57
2023/01/18 00:02:57;;;;;;;21.50;13.20;;;1.70;95.20;;;;;;5116888;28;20460;-57
2023/01/18 00:05:23;;;;;;;24.13;13.50;;;1.70;95.20;;;;;;5117069;28;20427;-58
2023/01/18 00:07:52;;;;;;;19.80;13.77;;;1.70;95.30;;;;;;5117072;28;20451;-58
2023/01/18 00:10:20;;;;;;;20.63;13.50;;;1.70;95.30;;;;;;5116846;28;20501;-58
2023/01/18 00:12:48;;;;;;;18.03;13.30;;;1.70;95.30;;;;;;5116658;28;20491;-58
2023/01/18 00:15:15;;;;;;;15.77;12.40;;;1.70;95.30;;;;;;5116840;28;20443;-58
2023/01/18 00:17:50;;;;;;;19.20;14.17;;;1.70;95.30;;;;;;5116874;28;20447;-58
2023/01/18 00:20:18;;;;;;;18.33;14.00;;;1.70;95.30;;;;;;5115380;28;20931;-58
2023/01/18 00:22:45;;;;;;;22.73;15.87;;;1.70;95.40;;;;;;5116605;28;20531;-57
2023/01/18 00:25:16;;;;;;;21.83;15.23;;;1.60;95.40;;;;;;5116657;28;20466;-58
2023/01/18 00:27:46;;;;;;;23.10;15.73;;;1.60;95.30;;;;;;5116628;28;20467;-58
2023/01/18 00:30:16;;;;;;;22.10;14.40;;;1.60;95.40;;;;;;5116708;28;20443;-57
2023/01/18 00:32:43;;;;;;;20.90;13.10;;;1.60;95.40;;;;;;5116655;28;20576;-58
2023/01/18 00:35:10;;;;;;;18.87;13.40;;;1.60;95.30;;;;;;5098830;28;20458;-58
2023/01/18 00:37:37;;;;;;;22.00;14.03;;;1.60;95.30;;;;;;5116856;28;20456;-58
2023/01/18 00:40:06;;;;;;;17.10;13.63;;;1.50;95.30;;;;;;5117262;28;20459;-58
2023/01/18 00:45:19;;;;;;;23.70;14.00;;;1.50;95.40;;;;;;5117626;28;20430;-58
2023/01/18 00:47:46;;;;;;;25.87;14.50;;;1.50;95.50;;;;;;5116227;28;20466;-58
2023/01/18 00:50:13;;;;;;;25.17;14.10;;;1.40;95.50;;;;;;5116088;28;20513;-58
2023/01/18 00:52:44;;;;;;;23.17;14.87;;;1.50;95.60;;;;;;5116009;28;20486;-57
2023/01/18 00:55:12;;;;;;;24.87;14.07;;;1.40;95.50;;;;;;5116088;28;20466;-58
2023/01/18 00:57:41;;;;;;;27.73;14.80;;;1.40;95.40;;;;;;5116063;28;20443;-58
2023/01/18 01:00:10;;;;;;;27.70;15.60;;;1.40;95.30;;;;;;5116019;28;20443;-58
2023/01/18 01:02:39;;;;;;;24.00;14.57;;;1.40;95.40;;;;;;5115749;28;20507;-58
2023/01/18 01:08:06;;;;;;;20.20;13.80;;;1.40;95.40;;;;;;5052795;28;20429;-58
2023/01/18 01:10:34;;;;;;;18.63;13.27;;;1.40;95.40;;;;;;5052630;28;20445;-57
2023/01/18 01:26:43;;;;;;;19.03;13.17;;;1.30;95.40;;;;;;5115467;28;20394;-58
2023/01/18 01:29:11;;;;;;;26.63;13.80;;;1.30;95.40;;;;;;5115319;28;20450;-58
2023/01/18 01:31:38;;;;;;;21.57;13.87;;;1.30;95.40;;;;;;5114935;28;20467;-58
2023/01/18 01:34:05;;;;;;;20.60;12.23;;;1.30;95.40;;;;;;5115051;28;20490;-58
2023/01/18 01:36:32;;;;;;;22.33;12.90;;;1.30;95.50;;;;;;5115154;28;20812;-58
2023/01/18 01:38:58;;;;;;;22.80;12.80;;;1.30;95.50;;;;;;5114914;28;20439;-57
2023/01/18 01:41:27;;;;;;;18.17;12.00;;;1.30;95.60;;;;;;5114471;28;20533;-58
2023/01/18 01:43:56;;;;;;;19.27;12.60;;;1.30;95.60;;;;;;5114925;28;20452;-58
2023/01/18 01:46:32;;;;;;;16.67;12.13;;;1.20;95.60;;;;;;5114829;28;20451;-58
2023/01/18 01:49:03;;;;;;;18.27;11.87;;;1.20;95.60;;;;;;5114804;28;20423;-58
2023/01/18 01:51:29;;;;;;;22.17;11.77;;;1.20;95.70;;;;;;5096525;28;20440;-57
2023/01/18 01:53:59;;;;;;;16.30;11.43;;;1.20;95.70;;;;;;5114781;28;20479;-58
2023/01/18 01:56:26;;;;;;;14.47;10.03;;;1.20;95.80;;;;;;5115901;28;20467;-58
2023/01/18 01:58:57;;;;;;;22.13;12.47;;;1.20;95.80;;;;;;5114751;28;20570;-58
2023/01/18 02:01:26;;;;;;;18.27;12.93;;;1.20;95.90;;;;;;5114574;28;20436;-57
2023/01/18 02:03:55;;;;;;;18.23;11.47;;;1.20;95.80;;;;;;5096178;28;20816;-58
2023/01/18 02:06:30;;;;;;;19.30;12.13;;;1.10;95.80;;;;;;5114264;28;20809;-58
2023/01/18 02:08:57;;;;;;;20.60;11.50;;;1.10;95.80;;;;;;5114548;28;21004;-58
2023/01/18 02:11:23;;;;;;;21.00;12.90;;;1.10;95.90;;;;;;5114431;28;20466;-58
2023/01/18 02:13:50;;;;;;;13.77;10.70;;;1.10;96.00;;;;;;5114023;28;20958;-58
2023/01/18 02:16:23;;;;;;;20.63;12.50;;;1.10;96.00;;;;;;5114230;28;20454;-58
2023/01/18 02:19:00;;;;;;;20.67;11.97;;;1.10;96.10;;;;;;5114343;28;20435;-58
2023/01/18 02:21:33;;;;;;;22.03;10.80;;;1.10;96.20;;;;;;5114197;28;20438;-57
2023/01/18 02:24:38;;;;;;;16.87;11.20;;;1.10;96.40;;;;;;5114315;28;20435;-58
2023/01/18 02:27:05;;;;;;;21.03;11.33;;;1.10;96.50;;;;;;5114277;28;20851;-58
2023/01/18 02:29:48;;;;;;;17.40;9.97;;;1.10;96.60;;;;;;5114221;28;20455;-58
2023/01/18 02:32:30;;;;;;;19.40;10.63;;;1.10;96.70;;;;;;5113674;28;20982;-58
2023/01/18 02:35:07;;;;;;;17.30;11.37;;;1.10;96.70;;;;;;5114182;28;20434;-58
2023/01/18 02:37:44;;;;;;;15.63;10.90;;;1.10;96.70;;;;;;5114144;28;20797;-58
2023/01/18 02:40:19;;;;;;;16.13;11.33;;;1.10;96.70;;;;;;5113850;28;20462;-58
2023/01/18 02:48:22;;;;;;;23.77;11.53;;;1.10;96.40;;;;;;5113712;28;20431;-58
2023/01/18 02:50:49;;;;;;;17.10;10.20;;;1.10;96.40;;;;;;5113976;28;20451;-58
2023/01/18 02:53:16;;;;;;;21.00;10.57;;;1.10;96.50;;;;;;5113431;28;20978;-58
2023/01/18 02:55:49;;;;;;;17.90;12.03;;;1.10;96.50;;;;;;5113901;28;20458;-58
2023/01/18 02:58:20;;;;;;;17.83;11.37;;;1.10;96.60;;;;;;5113871;28;20432;-58
2023/01/18 03:00:52;;;;;;;19.70;12.03;;;1.10;96.60;;;;;;5113748;28;20466;-58
2023/01/18 03:03:21;;;;;;;19.73;13.70;;;1.10;96.60;;;;;;5113815;28;20463;-59
2023/01/18 03:05:50;;;;;;;16.97;12.90;;;1.10;96.60;;;;;;5095903;28;20451;-59
2023/01/18 03:08:22;;;;;;;16.50;11.80;;;1.10;96.80;;;;;;5113699;28;20447;-58
2023/01/18 03:10:58;;;;;;;21.53;12.90;;;1.10;97.00;;;;;;5113733;28;20533;-59
2023/01/18 03:13:36;;;;;;;17.00;13.17;;;1.10;96.90;;;;;;5113672;28;20494;-58
2023/01/18 03:16:09;;;;;;;20.50;12.17;;;1.10;97.00;;;;;;5113741;28;20442;-58
2023/01/18 03:19:00;;;;;;;18.37;12.50;;;1.10;97.10;;;;;;5113451;28;20892;-58
2023/01/18 03:21:34;;;;;;;20.67;13.07;;;1.10;97.00;;;;;;5113812;28;20451;-58
2023/01/18 03:24:03;;;;;;;20.87;13.90;;;1.10;97.00;;;;;;5113543;28;20430;-57
2023/01/18 03:26:31;;;;;;;17.17;12.30;;;1.10;97.00;;;;;;5113579;28;20777;-58
2023/01/18 03:34:38;;;;;;;16.43;11.77;;;1.00;96.50;;;;;;5113770;28;20474;-58
2023/01/18 03:37:08;;;;;;;15.00;11.40;;;1.00;96.50;;;;;;5113394;28;20442;-58
2023/01/18 03:39:38;;;;;;;22.17;12.00;;;0.90;96.30;;;;;;5113075;28;20943;-58
2023/01/18 03:42:10;;;;;;;22.60;11.83;;;0.90;96.30;;;;;;5113034;28;20982;-57
2023/01/18 03:44:40;;;;;;;18.03;13.10;;;0.90;96.40;;;;;;5113450;28;20424;-58
2023/01/18 03:47:09;;;;;;;21.60;13.10;;;0.90;96.50;;;;;;5113442;28;20502;-58
2023/01/18 03:49:36;;;;;;;24.23;14.00;;;0.90;96.80;;;;;;5113367;28;20447;-58
2023/01/18 03:52:16;;;;;;;22.00;13.20;;;0.90;97.10;;;;;;5095269;28;20459;-57
2023/01/18 03:54:51;;;;;;;20.80;13.13;;;0.90;97.20;;;;;;5114374;28;20466;-58
2023/01/18 03:57:24;;;;;;;17.37;12.87;;;0.90;97.10;;;;;;5117110;28;20431;-58
2023/01/18 03:59:51;;;;;;;19.03;14.60;;;0.90;97.00;;;;;;5116888;28;20432;-58
2023/01/18 04:02:22;;;;;;;19.20;12.90;;;0.90;96.90;;;;;;5116134;28;20987;-57
2023/01/18 04:04:56;;;;;;;17.93;13.03;;;0.90;96.90;;;;;;5116644;28;20435;-58
2023/01/18 04:07:23;;;;;;;19.23;13.13;;;1.00;96.90;;;;;;5116663;28;20868;-58
2023/01/18 04:09:50;;;;;;;19.00;12.37;;;0.90;96.80;;;;;;5116865;28;20458;-57
2023/01/18 04:12:16;;;;;;;19.10;14.20;;;0.90;96.80;;;;;;5116460;28;20942;-58
2023/01/18 04:14:43;;;;;;;18.13;13.30;;;0.90;96.80;;;;;;5117675;28;20478;-58
2023/01/18 04:17:10;;;;;;;19.10;13.20;;;0.90;96.90;;;;;;5116456;28;20939;-58
2023/01/18 04:19:39;;;;;;;17.17;13.00;;;0.90;96.80;;;;;;5117084;28;20447;-58
2023/01/18 04:22:06;;;;;;;21.63;14.53;;;0.90;96.80;;;;;;5116506;27;20479;-57
2023/01/18 04:24:32;;;;;;;18.83;14.67;;;0.90;96.80;;;;;;5116351;28;20938;-58
2023/01/18 04:26:59;;;;;;;20.03;14.23;;;0.90;97.00;;;;;;5116530;28;20458;-58
2023/01/18 04:29:26;;;;;;;16.63;13.60;;;0.90;97.30;;;;;;5116012;28;20451;-57
2023/01/18 04:31:53;;;;;;;18.10;13.70;;;0.90;97.60;;;;;;5116403;28;20566;-58
2023/01/18 04:34:21;;;;;;;19.20;15.00;;;0.90;97.90;;;;;;5097991;28;20999;-58
2023/01/18 04:36:49;;;;;;;23.23;15.27;;;0.80;98.10;;;;;;5116011;28;20812;-58
2023/01/18 04:39:15;;;;;;;18.63;15.00;;;0.90;98.30;;;;;;5116158;28;20455;-57
2023/01/18 04:41:43;;;;;;;26.53;14.93;;;0.90;98.50;;;;;;5116143;28;20467;-58
2023/01/18 04:44:10;;;;;;;23.93;15.57;;;0.90;98.60;;;;;;5116247;28;20451;-57
2023/01/18 04:46:37;;;;;;;24.83;15.60;;;0.90;98.80;;;;;;5116126;28;20458;-58
2023/01/18 04:49:04;;;;;;;28.83;16.30;;;0.90;98.90;;;;;;5116203;28;20478;-58
2023/01/18 04:51:31;;;;;;;22.20;14.70;;;0.90;99.00;;;;;;5116741;28;20828;-58
2023/01/18 04:54:00;;;;;;;21.00;15.83;;;0.90;99.00;;;;;;5116312;28;20482;-57
2023/01/18 04:56:26;;;;;;;19.27;15.57;;;0.90;99.10;;;;;;5115983;28;20477;-58
2023/01/18 04:58:53;;;;;;;20.73;16.73;;;0.90;99.10;;;;;;5115959;28;20447;-58
2023/01/18 05:01:21;;;;;;;20.97;15.63;;;0.90;99.10;;;;;;5115694;28;20435;-58
2023/01/18 05:03:48;;;;;;;20.03;15.67;;;0.90;99.10;;;;;;5116044;28;20451;-58
2023/01/18 05:06:18;;;;;;;19.43;14.03;;;1.00;99.10;;;;;;5115400;28;20448;-58
2023/01/18 05:08:45;;;;;;;23.33;14.47;;;1.00;99.00;;;;;;5115792;28;20436;-57
2023/01/18 05:11:15;;;;;;;21.90;15.20;;;1.00;98.90;;;;;;5115684;28;20439;-58
2023/01/18 05:13:43;;;;;;;25.73;15.00;;;1.00;98.80;;;;;;5115636;28;20483;-57
2023/01/18 05:16:14;;;;;;;27.17;15.43;;;1.00;98.60;;;;;;5115619;28;20448;-58
2023/01/18 05:18:41;;;;;;;20.80;14.70;;;1.10;98.50;;;;;;5115272;28;20894;-58
2023/01/18 05:21:08;;;;;;;20.40;14.10;;;1.00;98.30;;;;;;5115517;28;20431;-58
2023/01/18 05:23:34;;;;;;;20.47;15.10;;;1.00;98.20;;;;;;5115445;28;20543;-57
2023/01/18 05:26:02;;;;;;;20.87;15.10;;;1.00;98.10;;;;;;5115411;28;20455;-58
2023/01/18 05:28:30;;;;;;;21.10;14.10;;;1.00;97.90;;;;;;5115389;28;20501;-58
2023/01/18 05:30:57;;;;;;;28.47;17.13;;;1.10;97.90;;;;;;5115305;28;20456;-58
2023/01/18 05:33:23;;;;;;;22.83;14.73;;;1.00;97.70;;;;;;5097137;28;20505;-58
2023/01/18 05:35:51;;;;;;;20.83;14.40;;;1.00;97.70;;;;;;5114930;28;20974;-58
2023/01/18 05:38:18;;;;;;;17.20;14.67;;;1.00;97.70;;;;;;5115497;28;20470;-58
2023/01/18 05:40:47;;;;;;;15.23;12.40;;;1.00;97.70;;;;;;5115109;28;20465;-57
2023/01/18 05:43:15;;;;;;;21.63;14.97;;;1.00;97.60;;;;;;5115116;28;20832;-58
2023/01/18 05:45:43;;;;;;;19.30;14.77;;;1.00;97.50;;;;;;5115029;28;21008;-58
2023/01/18 05:48:11;;;;;;;22.40;14.73;;;1.00;97.50;;;;;;5114970;28;20451;-58
2023/01/18 05:50:39;;;;;;;18.80;14.77;;;1.00;97.40;;;;;;5115086;28;20808;-57
2023/01/18 05:53:05;;;;;;;22.10;13.97;;;1.00;97.40;;;;;;5115043;28;20493;-58
2023/01/18 05:55:32;;;;;;;22.40;14.40;;;1.00;97.50;;;;;;5115034;28;20483;-58
2023/01/18 05:57:59;;;;;;;26.40;14.63;;;1.00;97.70;;;;;;5114996;28;20443;-58
2023/01/18 06:00:26;;;;;;;20.63;15.50;;;0.90;97.90;;;;;;5114744;28;20534;-58
2023/01/18 06:02:54;;;;;;;18.83;14.30;;;0.90;98.20;;;;;;5114757;28;20482;-58
2023/01/18 06:05:21;;;;;;;24.13;14.43;;;0.90;98.30;;;;;;5114598;28;20447;-58
2023/01/18 06:07:48;;;;;;;25.90;15.37;;;0.90;98.50;;;;;;5114617;28;20447;-58
2023/01/18 06:10:16;;;;;;;24.40;15.73;;;0.90;98.60;;;;;;5114572;28;20785;-58
2023/01/18 06:12:43;;;;;;;29.53;16.33;;;0.90;98.70;;;;;;5114414;28;20475;-58
2023/01/18 06:15:11;;;;;;;24.87;16.27;;;0.90;98.80;;;;;;5114404;28;20478;-58
2023/01/18 06:17:39;;;;;;;22.33;15.20;;;0.90;99.00;;;;;;5113346;28;20807;-58
2023/01/18 06:20:11;;;;;;;22.53;14.87;;;0.90;99.10;;;;;;5114113;28;20974;-58
2023/01/18 06:22:38;;;;;;;27.33;15.53;;;0.90;99.30;;;;;;5113980;28;20902;-58
2023/01/18 06:25:05;;;;;;;22.93;15.07;;;0.90;99.30;;;;;;5114366;28;20447;-58
2023/01/18 06:27:32;;;;;;;24.30;15.97;;;0.90;99.20;;;;;;5114281;28;20447;-58
2023/01/18 06:29:59;;;;;;;22.47;14.13;;;0.90;99.20;;;;;;5114276;28;20447;-58
2023/01/18 06:32:25;;;;;;;18.33;14.67;;;1.00;99.70;;;;;;5113835;28;20475;-59
2023/01/18 06:34:52;;;;;;;20.93;14.63;;;1.00;99.30;;;;;;5113845;28;20998;-59
2023/01/18 06:37:20;;;;;;;21.20;15.23;;;1.00;99.30;;;;;;5114166;28;20462;-58
2023/01/18 06:39:47;;;;;;;27.80;15.57;;;1.00;99.40;;;;;;5114068;28;20467;-58
2023/01/18 06:42:13;;;;;;;22.07;14.43;;;1.00;99.40;;;;;;5114055;28;20464;-58
2023/01/18 06:44:40;;;;;;;19.40;14.23;;;1.00;99.20;;;;;;5114150;28;20470;-59
2023/01/18 06:47:07;;;;;;;23.23;15.70;;;1.00;99.30;;;;;;5114341;28;20513;-58
2023/01/18 06:49:34;;;;;;;23.10;15.00;;;1.00;99.30;;;;;;5114076;28;20447;-59
2023/01/18 06:52:00;;;;;;;25.10;16.00;;;1.10;99.30;;;;;;5113825;28;20482;-58
2023/01/18 06:54:29;;;;;;;28.63;14.90;;;1.00;99.10;;;;;;5114066;28;20506;-58
2023/01/18 06:56:56;;;;;;;20.60;13.90;;;1.00;99.20;;;;;;5096267;28;20542;-58
2023/01/18 06:59:23;;;;;;;25.33;15.17;;;1.00;99.30;;;;;;5113542;28;20947;-57
2023/01/18 07:01:53;;;;;;;28.23;15.70;;;1.00;99.10;;;;;;5113777;28;20476;-58
2023/01/18 07:04:19;;;;;;;20.00;14.50;;;0.90;99.10;;;;;;5114736;28;20542;-58
2023/01/18 07:06:46;;;;;;;25.40;15.00;;;0.90;99.20;;;;;;5113784;28;20493;-58
2023/01/18 07:09:14;;;;;;;24.83;15.77;;;0.90;99.30;;;;;;5113751;28;20550;-58
2023/01/18 07:11:42;;;;;;;24.13;15.33;;;0.90;99.30;;;;;;5113821;28;20510;-58
2023/01/18 07:14:10;;;;;;;22.43;15.33;;;1.00;99.50;;;;;;5113616;28;21027;-58
2023/01/18 07:16:37;;;;;;;26.23;15.60;;;1.00;99.50;;;;;;5114493;28;20450;-58
2023/01/18 07:19:04;;;;;;;25.20;16.00;;;1.00;99.50;;;;;;5114465;28;20443;-58
2023/01/18 07:21:31;;;;;;;24.03;14.13;;;1.10;99.50;;;;;;5113482;28;20463;-58
2023/01/18 07:23:59;;;;;;;23.70;14.17;;;1.10;99.50;;;;;;5114073;28;20420;-58
2023/01/18 07:26:26;;;;;;;22.33;14.23;;;1.10;99.40;;;;;;5115130;28;20962;-58
2023/01/18 07:28:57;;;;;;;18.90;14.33;;;1.20;99.40;;;;;;5116469;28;20447;-58
2023/01/18 07:31:23;;;;;;;21.47;14.03;;;1.10;99.30;;;;;;5118349;28;20431;-57
2023/01/18 07:33:51;;;;;;;21.67;15.40;;;1.10;99.40;;;;;;5117358;28;20462;-58
2023/01/18 07:36:18;;;;;;;24.83;13.67;;;1.20;99.30;;;;;;5117672;28;20474;-58
2023/01/18 07:38:46;;;;;;;22.40;14.80;;;1.20;99.40;;;;;;5117576;28;20451;-58
2023/01/18 07:41:14;;;;;;;22.30;14.37;;;1.20;99.30;;;;;;5117386;28;20566;-58
2023/01/18 07:43:42;;;;;;;27.43;13.83;;;1.20;99.30;;;;;;5117440;28;20475;-57
2023/01/18 07:46:12;;;;;;;25.37;15.83;;;1.20;99.20;;;;;;5117073;28;20639;-58
2023/01/18 07:48:39;;;;;;;23.53;14.70;;;1.20;99.10;;;;;;5117332;28;20447;-59
2023/01/18 07:51:08;;;;;;;22.33;14.77;;;1.30;99.00;;;;;;5116856;28;20451;-58
2023/01/18 07:53:36;;;;;;;23.40;14.70;;;1.20;98.70;;;;;;5117130;28;20557;-58
2023/01/18 07:56:04;;;;;;;22.97;14.93;;;1.20;98.40;;;;;;5117049;28;20492;-59
2023/01/18 07:58:31;;;;;;;19.67;15.07;;;1.20;98.60;;;;;;5117071;28;20451;-58
2023/01/18 08:01:03;;;;;;;27.13;15.60;;;1.10;98.50;;;;;;5116689;28;20922;-58
2023/01/18 08:03:31;;;;;;;20.83;15.73;;;1.20;98.70;;;;;;5116663;28;20482;-59
2023/01/18 08:05:59;;;;;;;23.00;15.17;;;1.10;98.60;;;;;;5098911;28;20450;-59
2023/01/18 08:08:27;;;;;;;26.43;15.77;;;1.10;98.80;;;;;;5116790;28;20870;-59
2023/01/18 08:10:54;;;;;;;22.90;14.73;;;1.10;98.80;;;;;;5116799;28;20443;-58
2023/01/18 08:13:21;;;;;;;25.53;15.13;;;1.10;98.90;;;;;;5098328;28;20868;-58
2023/01/18 08:15:48;;;;;;;21.37;14.90;;;1.20;99.00;;;;;;5116732;28;20478;-59
2023/01/18 08:18:14;;;;;;;22.77;16.93;;;1.20;98.90;;;;;;5116422;28;20974;-59
2023/01/18 08:20:44;;;;;;;19.30;14.73;;;1.20;98.90;;;;;;5116632;28;20446;-59
2023/01/18 08:23:11;;;;;;;22.37;14.60;;;1.30;98.90;;;;;;5116733;28;20472;-58
2023/01/18 08:25:38;;;;;;;23.23;15.70;;;1.30;99.00;;;;;;5116580;28;20451;-59
2023/01/18 08:28:05;;;;;;;25.17;14.93;;;1.40;99.10;;;;;;5116530;28;20459;-59
2023/01/18 08:30:34;;;;;;;20.87;14.67;;;1.40;99.10;;;;;;5116439;28;20458;-59
2023/01/18 08:33:02;;;;;;;19.17;14.10;;;1.40;99.10;;;;;;5116209;28;20468;-58
2023/01/18 08:35:31;;;;;;;18.47;13.90;;;1.50;99.00;;;;;;5116358;28;20484;-59
2023/01/18 08:38:00;;;;;;;25.77;14.00;;;1.50;99.00;;;;;;5116338;28;20445;-59
2023/01/18 08:40:28;;;;;;;21.27;15.77;;;1.50;99.00;;;;;;5115363;28;20456;-58
2023/01/18 08:42:56;;;;;;;17.03;13.83;;;1.60;98.80;;;;;;5116179;28;20470;-58
2023/01/18 08:45:23;;;;;;;21.60;14.43;;;1.60;98.80;;;;;;5117029;28;20451;-58
2023/01/18 08:47:56;;;;;;;18.47;13.57;;;1.60;98.80;;;;;;5116111;28;20452;-59
2023/01/18 08:50:23;;;;;;;23.23;14.63;;;1.70;98.80;;;;;;5115775;28;20944;-59
2023/01/18 08:52:51;;;;;;;18.30;13.73;;;1.70;98.60;;;;;;5115590;28;21009;-58
2023/01/18 08:55:20;;;;;;;20.47;15.70;;;1.70;98.60;;;;;;5115961;28;20555;-59
2023/01/18 08:57:47;;;;;;;21.73;14.17;;;1.70;98.60;;;;;;5115565;28;20455;-59
2023/01/18 09:00:15;;;;;;;19.87;14.93;;;1.70;98.60;;;;;;5115907;28;20451;-59
2023/01/18 09:02:42;;;;;;;22.13;13.53;;;1.80;98.70;;;;;;5115444;28;20482;-58
2023/01/18 09:05:09;;;;;;;20.73;13.67;;;1.70;98.80;;;;;;5116245;28;20444;-59
2023/01/18 09:07:36;;;;;;;20.73;15.00;;;1.80;98.90;;;;;;5097621;28;20458;-59
2023/01/18 09:10:03;;;;;;;20.80;14.67;;;1.80;98.90;;;;;;5115625;28;20445;-58
2023/01/18 09:12:33;;;;;;;19.23;14.30;;;1.90;98.90;;;;;;5115547;28;20499;-58
2023/01/18 09:15:00;;;;;;;27.57;14.63;;;1.90;98.90;;;;;;5115537;28;20486;-59
2023/01/18 09:17:26;;;;;;;16.90;13.07;;;2.00;98.80;;;;;;5115266;28;20428;-59
2023/01/18 09:19:53;;;;;;;20.13;14.17;;;2.00;98.80;;;;;;5115368;28;20458;-59
2023/01/18 09:22:21;;;;;;;24.43;14.30;;;2.10;98.90;;;;;;5115655;28;20468;-58
2023/01/18 09:24:48;;;;;;;19.77;13.83;;;2.10;98.80;;;;;;5115138;28;20944;-58
2023/01/18 09:27:14;;;;;;;17.53;13.57;;;2.20;98.70;;;;;;5115371;28;20451;-59
2023/01/18 09:29:45;;;;;;;21.93;13.80;;;2.20;98.40;;;;;;5115253;28;20451;-58
2023/01/18 09:32:12;;;;;;;23.10;13.80;;;2.20;98.40;;;;;;5115250;28;20503;-58
2023/01/18 09:34:39;;;;;;;23.07;14.20;;;2.20;98.50;;;;;;5115377;28;20884;-58
2023/01/18 09:37:06;;;;;;;26.03;14.73;;;2.20;98.30;;;;;;5097249;28;20452;-58
2023/01/18 09:39:33;;;;;;;23.40;14.10;;;2.10;98.50;;;;;;5114669;28;20513;-58
2023/01/18 09:42:03;;;;;;;22.07;14.63;;;2.00;98.50;;;;;;5115056;28;20460;-58
2023/01/18 09:44:33;;;;;;;16.40;13.43;;;2.00;98.80;;;;;;5114641;28;20985;-58
2023/01/18 09:47:06;;;;;;;19.07;13.17;;;2.10;99.00;;;;;;5115066;28;20435;-58
2023/01/18 09:49:37;;;;;;;22.70;14.80;;;2.20;98.90;;;;;;5114971;28;20429;-58
2023/01/18 09:52:14;;;;;;;20.60;14.70;;;2.30;98.80;;;;;;5114708;28;20474;-58
2023/01/18 09:54:48;;;;;;;19.50;13.40;;;2.30;98.50;;;;;;5115437;28;20463;-58
2023/01/18 09:57:28;;;;;;;27.00;13.77;;;2.20;98.20;;;;;;5114815;28;20435;-58
2023/01/18 09:59:57;;;;;;;24.63;14.40;;;2.20;98.40;;;;;;5114779;28;20770;-58
2023/01/18 10:02:34;;;;;;;18.03;13.60;;;2.20;98.60;;;;;;5114215;28;21003;-58
2023/01/18 10:05:06;;;;;;;21.87;13.90;;;2.30;98.60;;;;;;5114687;28;20800;-58
2023/01/18 10:07:37;;;;;;;18.40;12.90;;;2.40;98.80;;;;;;5114632;28;20442;-58
2023/01/18 10:10:05;;;;;;;25.23;13.73;;;2.40;98.10;;;;;;5114733;28;20453;-57
2023/01/18 10:12:37;;;;;;;24.10;13.70;;;2.50;98.10;;;;;;5113579;28;20480;-58
2023/01/18 10:15:09;;;;;;;21.10;13.27;;;2.60;98.00;;;;;;5114420;28;20476;-59
2023/01/18 10:17:40;;;;;;;21.33;13.70;;;2.60;98.00;;;;;;5114516;28;20444;-59
2023/01/18 10:20:15;;;;;;;22.13;14.10;;;2.70;97.60;;;;;;5114148;28;20907;-58
2023/01/18 10:22:47;;;;;;;15.10;13.10;;;2.80;97.50;;;;;;5114263;28;20464;-58
2023/01/18 10:25:18;;;;;;;22.97;14.47;;;2.80;97.50;;;;;;5115040;28;20479;-59
2023/01/18 10:28:15;;;;;;;32.90;15.30;;;2.80;97.30;;;;;;5114804;28;20464;-59
2023/01/18 10:31:00;;;;;;;25.40;13.90;;;2.80;97.50;;;;;;5105631;28;20455;-58
2023/01/18 10:33:32;;;;;;;20.67;13.93;;;2.90;97.40;;;;;;5114566;28;20502;-58
2023/01/18 10:36:04;;;;;;;22.57;13.97;;;3.00;97.50;;;;;;5114054;28;20473;-59
2023/01/18 10:38:31;;;;;;;22.77;13.67;;;3.10;97.50;;;;;;5113740;28;20920;-58
2023/01/18 10:40:59;;;;;;;21.83;13.20;;;3.10;97.00;;;;;;5113737;28;20463;-59
2023/01/18 10:43:28;;;;;;;25.23;14.30;;;3.10;97.00;;;;;;5113767;28;21034;-58
2023/01/18 10:45:55;;;;;;;21.70;13.50;;;3.20;97.20;;;;;;5113842;28;20471;-58
2023/01/18 10:48:30;;;;;;;31.50;14.70;;;3.20;97.10;;;;;;5113582;28;20957;-58
2023/01/18 10:50:59;;;;;;;21.43;14.80;;;3.30;96.90;;;;;;5114003;28;20433;-58
2023/01/18 10:53:32;;;;;;;20.57;14.10;;;3.40;97.10;;;;;;5113842;28;20470;-56
2023/01/18 10:56:02;;;;;;;20.47;14.67;;;3.40;96.90;;;;;;5114761;28;20469;-57
2023/01/18 10:58:33;;;;;;;23.97;13.80;;;3.50;96.80;;;;;;5113975;28;20461;-57
2023/01/18 11:01:02;;;;;;;20.37;14.70;;;3.50;96.70;;;;;;5113892;28;20483;-56
2023/01/18 11:03:37;;;;;;;17.60;13.93;;;3.60;96.20;;;;;;5115393;28;21079;-56
2023/01/18 11:06:07;;;;;;;21.57;13.63;;;3.70;95.80;;;;;;5120612;28;20900;-57
2023/01/18 11:08:34;;;;;;;18.10;12.73;;;3.80;95.50;;;;;;5120788;28;20457;-57
2023/01/18 11:11:03;;;;;;;16.80;12.33;;;3.90;96.00;;;;;;5120307;28;20939;-57
2023/01/18 11:13:34;;;;;;;21.73;12.83;;;4.10;95.30;;;;;;5102220;28;20474;-56
2023/01/18 11:16:16;;;;;;;20.10;13.20;;;4.30;95.20;;;;;;5120689;28;20465;-57
2023/01/18 11:18:59;;;;;;;18.07;13.07;;;4.50;94.40;;;;;;5120568;28;20434;-57
2023/01/18 11:21:30;;;;;;;17.47;14.40;;;4.80;93.90;;;;;;5120420;28;20434;-56
2023/01/18 11:23:57;;;;;;;25.10;14.83;;;5.10;93.30;;;;;;5120926;28;20461;-57
2023/01/18 11:26:24;;;;;;;19.20;13.60;;;5.40;93.20;;;;;;5120425;28;20456;-57
2023/01/18 11:28:58;;;;;;;16.97;12.03;;;5.60;91.90;;;;;;5120385;28;20498;-56
2023/01/18 11:31:27;;;;;;;17.33;11.90;;;6.00;90.80;;;;;;5120356;28;20459;-57
2023/01/18 11:33:57;;;;;;;19.03;11.63;;;6.10;90.40;;;;;;5120348;28;20455;-57
2023/01/18 11:36:36;;;;;;;17.10;11.20;;;6.30;89.90;;;;;;5120236;28;20473;-56
2023/01/18 11:39:32;;;;;;;15.97;11.50;;;6.40;87.40;;;;;;5120094;28;20975;-56
2023/01/18 11:42:17;;;;;;;15.03;11.80;;;6.60;85.90;;;;;;5120278;28;20490;-57
2023/01/18 11:44:48;;;;;;;14.20;11.53;;;7.00;86.20;;;;;;5120310;28;20431;-57
2023/01/18 11:47:22;;;;;;;19.37;11.03;;;7.40;85.20;;;;;;5120455;28;20427;-57
2023/01/18 11:49:58;;;;;;;14.70;11.07;;;7.70;83.30;;;;;;5120524;28;20441;-58
2023/01/18 11:52:41;;;;;;;13.27;9.70;;;8.10;80.20;;;;;;5120474;28;20476;-57
2023/01/18 11:55:18;;;;;;;14.07;9.63;;;8.40;76.50;;;;;;5120105;28;20443;-57
2023/01/18 11:57:45;;;;;;;12.13;9.17;;;8.50;74.20;;;;;;5120189;28;20848;-58
2023/01/18 12:00:15;;;;;;;11.20;10.10;;;8.50;72.70;;;;;;5119710;28;20963;-57
2023/01/18 12:03:23;;;;;;;12.70;9.80;;;8.30;71.70;;;;;;5120107;28;20465;-58
2023/01/18 12:05:54;;;;;;;14.50;10.47;;;8.20;73.20;;;;;;5058524;28;20470;-59
2023/01/18 12:08:40;;;;;;;11.60;9.40;;;8.40;73.60;;;;;;5120042;28;20525;-58
2023/01/18 12:11:21;;;;;;;12.90;9.23;;;8.60;72.70;;;;;;5120345;28;20438;-59
2023/01/18 12:13:58;;;;;;;14.43;9.30;;;9.10;73.20;;;;;;5119949;28;20430;-58
2023/01/18 12:16:34;;;;;;;12.60;9.50;;;9.50;69.40;;;;;;5115652;28;20506;-58
2023/01/18 12:19:29;;;;;;;11.03;8.70;;;9.70;66.40;;;;;;5116742;28;20526;-58
2023/01/18 12:22:26;;;;;;;12.20;9.10;;;10.00;65.70;;;;;;5116254;28;21039;-58
2023/01/18 12:25:04;;;;;;;13.57;7.37;;;10.20;61.20;;;;;;5116291;28;20911;-58
2023/01/18 12:27:40;;;;;;;11.90;8.10;;;10.40;60.80;;;;;;5116623;28;20630;-58
2023/01/18 12:30:37;;;;;;;9.73;8.30;;;10.40;59.60;;;;;;5116267;28;20914;-58
2023/01/18 12:33:23;;;;;;;11.13;7.93;;;10.50;60.00;;;;;;5095891;28;20829;-58
2023/01/18 12:36:14;;;;;;;8.90;8.07;;;10.60;58.90;;;;;;5116024;28;20973;-59
2023/01/18 12:38:50;;;;;;;15.37;7.80;;;10.70;58.10;;;;;;5116009;28;21126;-58
2023/01/18 12:41:37;;;;;;;8.40;7.10;;;10.60;57.90;;;;;;5116074;28;21033;-58
2023/01/18 12:44:31;;;;;;;7.73;6.93;;;10.60;57.60;;;;;;5115829;28;20922;-57
2023/01/18 12:47:08;;;;;;;10.90;7.53;;;10.70;58.20;;;;;;5116542;28;20445;-58
2023/01/18 12:49:40;;;;;;;9.53;7.93;;;10.80;57.90;;;;;;5098719;28;20436;-58
2023/01/18 12:52:06;;;;;;;11.23;7.23;;;10.90;57.30;;;;;;5115732;28;20997;-57
2023/01/18 12:54:39;;;;;;;12.40;7.00;;;11.00;57.40;;;;;;5116061;28;20446;-59
2023/01/18 12:57:07;;;;;;;10.63;7.50;;;11.10;56.60;;;;;;5115911;28;20506;-59
2023/01/18 12:59:40;;;;;;;10.43;6.73;;;11.10;56.20;;;;;;5115976;28;20534;-58
2023/01/18 13:02:25;;;;;;;7.97;6.97;;;11.00;56.90;;;;;;5115640;28;20473;-57
2023/01/18 13:04:55;;;;;;;7.40;6.70;;;11.10;56.40;;;;;;5115943;28;20435;-58
2023/01/18 13:07:27;;;;;;;8.47;7.13;;;11.30;56.10;;;;;;5115512;28;20986;-58
2023/01/18 13:09:56;;;;;;;9.20;6.67;;;11.40;55.30;;;;;;5115245;28;20844;-58
2023/01/18 13:12:24;;;;;;;7.87;6.37;;;11.20;54.50;;;;;;5115266;28;20983;-57
2023/01/18 13:14:56;;;;;;;8.67;6.43;;;11.30;55.50;;;;;;5115682;28;20455;-58
2023/01/18 13:17:31;;;;;;;7.73;6.33;;;11.20;54.90;;;;;;5115635;28;20512;-58
2023/01/18 13:20:04;;;;;;;7.60;5.87;;;11.30;55.80;;;;;;5115652;28;20873;-58
2023/01/18 13:22:40;;;;;;;7.30;5.80;;;11.30;55.10;;;;;;5116067;27;20908;-57
2023/01/18 13:28:02;;;;;;;7.60;6.00;;;11.20;55.30;;;;;;5091751;28;20572;-57